Time;durP1;ratioP1;P1;durP2;ratioP2;P2;SDS_P1;SDS_P2;PMS_P1;PMS_P2;Temp;Humidity;BMP_temperature;BMP_pressure;BME280_temperature;BME280_humidity;BME280_pressure;Samples;Min_cycle;Max_cycle;Signal;HPM_P1;HPM_P2
2023/06/02 00:01:49;;;;;;;12.90;3.37;;;;;;;;;;5026708;28;20028;-68
2023/06/02 00:04:17;;;;;;;18.10;3.53;;;;;;;;;;5025583;28;20030;-67
2023/06/02 00:06:45;;;;;;;16.20;3.20;;;;;;;;;;5027639;28;20025;-68
2023/06/02 00:09:10;;;;;;;18.77;3.40;;;;;;;;;;5027852;28;20036;-68
2023/06/02 00:11:36;;;;;;;14.60;3.07;;;;;;;;;;5039153;28;20044;-68
2023/06/02 00:14:02;;;;;;;16.83;3.90;;;;;;;;;;5070530;28;20444;-68
2023/06/02 00:16:27;;;;;;;13.23;2.93;;;;;;;;;;5067260;28;20025;-67
2023/06/02 00:18:53;;;;;;;13.47;3.10;;;;;;;;;;5069918;28;20498;-68
2023/06/02 00:21:19;;;;;;;14.77;3.10;;;;;;;;;;5069792;28;20028;-68
2023/06/02 00:23:45;;;;;;;12.90;2.80;;;;;;;;;;5070255;28;20074;-68
2023/06/02 00:26:10;;;;;;;15.77;3.23;;;;;;;;;;5070463;28;20048;-67
2023/06/02 00:28:35;;;;;;;19.07;3.60;;;;;;;;;;5069350;28;20071;-68
2023/06/02 00:31:01;;;;;;;15.77;3.33;;;;;;;;;;5069777;28;20086;-67
2023/06/02 00:33:26;;;;;;;18.27;3.80;;;;;;;;;;5070294;28;20036;-68
2023/06/02 00:35:51;;;;;;;9.90;2.67;;;;;;;;;;5069775;28;20086;-68
2023/06/02 00:38:17;;;;;;;13.07;2.83;;;;;;;;;;5068968;28;20099;-68
2023/06/02 00:40:42;;;;;;;13.77;3.33;;;;;;;;;;5070176;28;20663;-68
2023/06/02 00:43:07;;;;;;;18.37;3.37;;;;;;;;;;5070396;28;20042;-68
2023/06/02 00:45:33;;;;;;;17.50;3.00;;;;;;;;;;5068909;28;20025;-68
2023/06/02 00:48:01;;;;;;;12.77;2.80;;;;;;;;;;5070447;28;20039;-68
2023/06/02 00:50:26;;;;;;;13.97;2.63;;;;;;;;;;5068377;28;20093;-68
2023/06/02 00:52:54;;;;;;;12.17;2.80;;;;;;;;;;5072610;28;20020;-68
2023/06/02 00:55:19;;;;;;;13.50;2.97;;;;;;;;;;5072571;28;20367;-67
2023/06/02 00:57:44;;;;;;;12.80;2.87;;;;;;;;;;5072662;28;20028;-67
2023/06/02 01:03:14;;;;;;;12.20;2.87;;;;;;;;;;5074189;28;20193;-69
2023/06/02 01:05:40;;;;;;;14.73;3.13;;;;;;;;;;5073132;28;20035;-70
2023/06/02 01:08:07;;;;;;;11.03;2.77;;;;;;;;;;5072120;28;20470;-70
2023/06/02 01:10:34;;;;;;;16.87;3.00;;;;;;;;;;5073176;28;20036;-69
2023/06/02 01:13:00;;;;;;;13.27;3.33;;;;;;;;;;5072409;28;20068;-70
2023/06/02 01:15:25;;;;;;;10.97;2.40;;;;;;;;;;5072411;28;20068;-70
2023/06/02 01:17:52;;;;;;;18.27;2.93;;;;;;;;;;5073024;28;20058;-70
2023/06/02 01:20:21;;;;;;;16.13;2.90;;;;;;;;;;5073132;28;20402;-70
2023/06/02 01:22:57;;;;;;;16.43;3.17;;;;;;;;;;5072218;28;20016;-70
2023/06/02 01:25:27;;;;;;;15.33;3.30;;;;;;;;;;5073237;28;20028;-70
2023/06/02 01:27:52;;;;;;;11.43;2.83;;;;;;;;;;5071790;28;20025;-70
2023/06/02 01:30:18;;;;;;;12.40;2.83;;;;;;;;;;5072058;28;20128;-70
2023/06/02 01:33:03;;;;;;;17.40;3.10;;;;;;;;;;5073978;28;20130;-70
2023/06/02 01:35:30;;;;;;;17.37;3.30;;;;;;;;;;5071071;28;20119;-70
2023/06/02 01:37:58;;;;;;;17.83;3.17;;;;;;;;;;5071495;28;20434;-70
2023/06/02 01:40:24;;;;;;;16.13;2.97;;;;;;;;;;5072277;28;20042;-70
2023/06/02 01:42:50;;;;;;;22.03;3.07;;;;;;;;;;5071089;28;20074;-70
2023/06/02 01:45:16;;;;;;;22.00;3.30;;;;;;;;;;5070701;28;20478;-70
2023/06/02 01:47:41;;;;;;;17.07;3.10;;;;;;;;;;5073196;28;20020;-70
2023/06/02 01:50:06;;;;;;;23.43;3.20;;;;;;;;;;5070418;28;20086;-70
2023/06/02 01:52:32;;;;;;;17.10;3.17;;;;;;;;;;5072262;28;20587;-70
2023/06/02 01:54:57;;;;;;;15.53;3.00;;;;;;;;;;5072717;28;20035;-70
2023/06/02 01:57:22;;;;;;;11.77;2.83;;;;;;;;;;5071015;28;20039;-70
2023/06/02 01:59:48;;;;;;;15.87;2.77;;;;;;;;;;5071740;28;20020;-70
2023/06/02 02:02:13;;;;;;;19.77;3.00;;;;;;;;;;5072011;28;20024;-70
2023/06/02 02:04:40;;;;;;;16.90;3.43;;;;;;;;;;5071380;28;20031;-70
2023/06/02 02:07:05;;;;;;;14.67;3.00;;;;;;;;;;5071562;28;20021;-70
2023/06/02 02:09:31;;;;;;;15.50;3.50;;;;;;;;;;5071643;28;20032;-70
2023/06/02 02:11:56;;;;;;;19.87;2.90;;;;;;;;;;5071535;28;20125;-70
2023/06/02 02:14:21;;;;;;;15.07;3.07;;;;;;;;;;5071308;28;20039;-68
2023/06/02 02:16:49;;;;;;;15.00;3.27;;;;;;;;;;5070735;28;20020;-68
2023/06/02 02:19:16;;;;;;;11.43;2.90;;;;;;;;;;5069527;28;20370;-67
2023/06/02 02:21:41;;;;;;;13.53;3.03;;;;;;;;;;5070683;28;20027;-67
2023/06/02 02:24:07;;;;;;;10.63;2.77;;;;;;;;;;5071739;28;20382;-67
2023/06/02 02:26:32;;;;;;;17.97;3.50;;;;;;;;;;5068732;28;20031;-68
2023/06/02 02:28:57;;;;;;;14.90;3.57;;;;;;;;;;5068098;28;20028;-68
2023/06/02 02:31:23;;;;;;;17.17;3.90;;;;;;;;;;5071596;28;20036;-68
2023/06/02 02:33:48;;;;;;;17.13;3.77;;;;;;;;;;5071558;28;20481;-68
2023/06/02 02:36:16;;;;;;;16.40;3.40;;;;;;;;;;5070432;28;20035;-68
2023/06/02 02:38:41;;;;;;;18.23;3.43;;;;;;;;;;5069320;28;20024;-67
2023/06/02 02:41:06;;;;;;;18.37;3.97;;;;;;;;;;5070705;28;20043;-68
2023/06/02 02:43:32;;;;;;;22.93;3.70;;;;;;;;;;5069945;28;20115;-67
2023/06/02 02:45:57;;;;;;;16.43;3.83;;;;;;;;;;5067827;28;20035;-68
2023/06/02 02:48:22;;;;;;;19.63;3.67;;;;;;;;;;5072072;28;20493;-69
2023/06/02 02:50:47;;;;;;;13.10;3.10;;;;;;;;;;5071765;28;20086;-68
2023/06/02 02:53:15;;;;;;;13.50;3.30;;;;;;;;;;5064188;28;20063;-69
2023/06/02 02:55:41;;;;;;;16.33;3.23;;;;;;;;;;5068772;28;20107;-69
2023/06/02 02:58:08;;;;;;;21.67;3.50;;;;;;;;;;5070305;28;20107;-69
2023/06/02 03:00:33;;;;;;;14.57;3.40;;;;;;;;;;5070787;28;20029;-69
2023/06/02 03:03:01;;;;;;;17.27;3.70;;;;;;;;;;5070102;28;20390;-69
2023/06/02 03:05:26;;;;;;;23.97;3.40;;;;;;;;;;5068076;28;20032;-69
2023/06/02 03:07:51;;;;;;;18.67;3.03;;;;;;;;;;5070577;28;20496;-69
2023/06/02 03:10:17;;;;;;;16.20;3.40;;;;;;;;;;5070420;28;20109;-69
2023/06/02 03:12:42;;;;;;;15.07;3.03;;;;;;;;;;5069981;28;20190;-69
2023/06/02 03:15:07;;;;;;;19.70;3.60;;;;;;;;;;5069427;28;20044;-69
2023/06/02 03:17:33;;;;;;;22.07;3.40;;;;;;;;;;5070586;28;20421;-69
2023/06/02 03:19:58;;;;;;;13.97;3.33;;;;;;;;;;5071417;28;20039;-69
2023/06/02 03:22:23;;;;;;;14.77;3.37;;;;;;;;;;5069326;28;20391;-69
2023/06/02 03:24:48;;;;;;;18.83;3.83;;;;;;;;;;5069900;28;20036;-69
2023/06/02 03:27:15;;;;;;;17.40;3.33;;;;;;;;;;5068614;28;20036;-69
2023/06/02 03:29:41;;;;;;;18.87;3.50;;;;;;;;;;5070645;28;20067;-69
2023/06/02 03:32:10;;;;;;;15.03;3.07;;;;;;;;;;5052983;28;20067;-69
2023/06/02 03:34:36;;;;;;;19.37;3.30;;;;;;;;;;5069987;28;20052;-69
2023/06/02 03:37:02;;;;;;;16.80;3.80;;;;;;;;;;5071067;28;20029;-69
2023/06/02 03:39:27;;;;;;;19.17;3.83;;;;;;;;;;5070921;28;20545;-69
2023/06/02 03:41:53;;;;;;;23.33;3.20;;;;;;;;;;5066974;28;20459;-69
2023/06/02 03:44:18;;;;;;;17.80;3.27;;;;;;;;;;5070253;28;20033;-69
2023/06/02 03:46:43;;;;;;;15.97;3.33;;;;;;;;;;5068692;28;20163;-69
2023/06/02 03:49:08;;;;;;;18.67;3.47;;;;;;;;;;5071511;28;20020;-69
2023/06/02 03:51:34;;;;;;;23.47;4.30;;;;;;;;;;5070981;28;20452;-69
2023/06/02 03:53:59;;;;;;;15.83;3.80;;;;;;;;;;5068872;28;20036;-69
2023/06/02 03:56:25;;;;;;;18.07;3.40;;;;;;;;;;5071591;28;20016;-69
2023/06/02 03:58:50;;;;;;;22.57;3.47;;;;;;;;;;5070034;28;20089;-69
2023/06/02 04:01:16;;;;;;;15.17;3.10;;;;;;;;;;5068836;28;20021;-69
2023/06/02 04:03:41;;;;;;;14.50;4.10;;;;;;;;;;5070855;28;20017;-69
2023/06/02 04:06:07;;;;;;;19.03;3.00;;;;;;;;;;5070055;28;20020;-69
2023/06/02 04:08:33;;;;;;;16.67;3.73;;;;;;;;;;5068693;28;20056;-69
2023/06/02 04:10:58;;;;;;;18.83;3.20;;;;;;;;;;5068164;28;20112;-69
2023/06/02 04:13:23;;;;;;;14.77;3.20;;;;;;;;;;5068742;28;20025;-69
2023/06/02 04:15:48;;;;;;;19.60;3.33;;;;;;;;;;5069373;28;20557;-69
2023/06/02 04:18:14;;;;;;;21.30;5.17;;;;;;;;;;5067076;28;20028;-69
2023/06/02 04:20:39;;;;;;;17.20;3.50;;;;;;;;;;5067803;28;20420;-69
2023/06/02 04:23:04;;;;;;;21.13;3.43;;;;;;;;;;5069006;28;20066;-69
2023/06/02 04:25:30;;;;;;;14.13;3.70;;;;;;;;;;5067735;28;20052;-69
2023/06/02 04:27:55;;;;;;;21.00;3.47;;;;;;;;;;5074201;28;20020;-69
2023/06/02 04:30:20;;;;;;;17.90;3.50;;;;;;;;;;5068065;28;20021;-69
2023/06/02 04:32:46;;;;;;;21.77;3.40;;;;;;;;;;5073638;28;20043;-69
2023/06/02 04:35:12;;;;;;;17.57;3.40;;;;;;;;;;5073526;28;20035;-69
2023/06/02 04:37:37;;;;;;;15.40;3.67;;;;;;;;;;5073023;28;20024;-69
2023/06/02 04:40:03;;;;;;;17.07;3.53;;;;;;;;;;5072620;28;20017;-69
2023/06/02 04:42:28;;;;;;;16.83;3.17;;;;;;;;;;5071536;28;20035;-69
2023/06/02 04:44:54;;;;;;;14.63;3.40;;;;;;;;;;5074947;28;20028;-69
2023/06/02 04:47:19;;;;;;;18.23;3.37;;;;;;;;;;5072646;28;20517;-70
2023/06/02 04:49:44;;;;;;;21.23;3.73;;;;;;;;;;5070900;28;20021;-69
2023/06/02 04:52:10;;;;;;;16.07;3.23;;;;;;;;;;5073760;28;20342;-69
2023/06/02 04:54:35;;;;;;;16.60;4.00;;;;;;;;;;5065295;28;20586;-69
2023/06/02 04:57:05;;;;;;;15.63;3.37;;;;;;;;;;5072946;28;20024;-70
2023/06/02 04:59:33;;;;;;;16.37;3.37;;;;;;;;;;5073305;28;20024;-70
2023/06/02 05:01:58;;;;;;;21.33;3.67;;;;;;;;;;5072034;28;20048;-69
2023/06/02 05:04:24;;;;;;;17.67;3.63;;;;;;;;;;5070802;28;20071;-69
2023/06/02 05:06:49;;;;;;;21.83;3.80;;;;;;;;;;5072996;28;20044;-69
2023/06/02 05:09:14;;;;;;;19.13;3.60;;;;;;;;;;5072048;28;20063;-69
2023/06/02 05:11:40;;;;;;;20.30;3.90;;;;;;;;;;5072045;28;20079;-70
2023/06/02 05:14:05;;;;;;;17.93;3.87;;;;;;;;;;5069370;28;20159;-70
2023/06/02 05:16:31;;;;;;;22.17;3.80;;;;;;;;;;5072240;28;20035;-70
2023/06/02 05:18:57;;;;;;;22.50;4.60;;;;;;;;;;5072552;28;20423;-69
2023/06/02 05:21:23;;;;;;;24.07;4.53;;;;;;;;;;5073291;28;20431;-70
2023/06/02 05:23:48;;;;;;;20.47;4.10;;;;;;;;;;5073869;28;20028;-69
2023/06/02 05:26:14;;;;;;;16.47;4.03;;;;;;;;;;5072023;28;20023;-70
2023/06/02 05:28:40;;;;;;;14.77;3.83;;;;;;;;;;5073126;28;20111;-70
2023/06/02 05:31:05;;;;;;;18.67;4.13;;;;;;;;;;5070571;28;20107;-70
2023/06/02 05:33:31;;;;;;;17.27;3.90;;;;;;;;;;5071182;28;20031;-70
2023/06/02 05:35:56;;;;;;;18.97;4.03;;;;;;;;;;5073005;28;20024;-70
2023/06/02 05:38:21;;;;;;;16.90;4.00;;;;;;;;;;5072075;28;20432;-70
2023/06/02 05:40:46;;;;;;;23.17;4.50;;;;;;;;;;5073806;28;20044;-70
2023/06/02 05:43:13;;;;;;;17.77;3.93;;;;;;;;;;5067386;28;20482;-71
2023/06/02 05:45:38;;;;;;;26.43;4.50;;;;;;;;;;5065549;28;20078;-70
2023/06/02 05:48:03;;;;;;;18.30;4.37;;;;;;;;;;5071085;28;20029;-70
2023/06/02 05:50:29;;;;;;;19.30;3.93;;;;;;;;;;5071632;28;20028;-70
2023/06/02 05:52:54;;;;;;;22.43;4.13;;;;;;;;;;5069902;28;20421;-70
2023/06/02 05:55:19;;;;;;;22.67;4.43;;;;;;;;;;5073487;28;20055;-70
2023/06/02 05:57:45;;;;;;;20.50;4.00;;;;;;;;;;5066798;28;20050;-70
2023/06/02 06:00:11;;;;;;;19.00;4.20;;;;;;;;;;5068479;28;20017;-69
2023/06/02 06:02:36;;;;;;;17.40;3.87;;;;;;;;;;5065768;28;20016;-70
2023/06/02 06:05:01;;;;;;;20.23;3.97;;;;;;;;;;5071057;28;20020;-69
2023/06/02 06:07:26;;;;;;;29.47;4.50;;;;;;;;;;5071013;28;20025;-69
2023/06/02 06:09:52;;;;;;;19.87;4.03;;;;;;;;;;5073209;28;20382;-70
2023/06/02 06:12:17;;;;;;;19.93;4.00;;;;;;;;;;5072958;28;20123;-69
2023/06/02 06:14:43;;;;;;;21.97;4.57;;;;;;;;;;5072071;28;20048;-69
2023/06/02 06:17:08;;;;;;;21.30;4.97;;;;;;;;;;5072529;28;20130;-69
2023/06/02 06:19:34;;;;;;;26.70;4.90;;;;;;;;;;5070694;28;20017;-70
2023/06/02 06:21:59;;;;;;;20.50;4.43;;;;;;;;;;5073081;28;20058;-70
2023/06/02 06:24:24;;;;;;;24.23;4.27;;;;;;;;;;5072898;28;20025;-70
2023/06/02 06:26:50;;;;;;;24.75;4.78;;;;;;;;;;5073167;28;20095;-70
2023/06/02 06:29:15;;;;;;;19.55;4.45;;;;;;;;;;5072693;28;20008;-70
2023/06/02 06:31:41;;;;;;;22.23;4.53;;;;;;;;;;5072848;28;20469;-70
2023/06/02 06:34:08;;;;;;;25.77;4.38;;;;;;;;;;5072102;28;20056;-70
2023/06/02 06:36:34;;;;;;;23.27;4.00;;;;;;;;;;5073069;28;20037;-70
2023/06/02 06:38:59;;;;;;;21.20;3.90;;;;;;;;;;5072751;28;20403;-70
2023/06/02 06:41:27;;;;;;;24.27;4.20;;;;;;;;;;5072566;28;20008;-70
2023/06/02 06:43:52;;;;;;;17.77;3.90;;;;;;;;;;5072819;28;20070;-70
2023/06/02 06:46:17;;;;;;;27.52;6.05;;;;;;;;;;5072668;28;20416;-70
2023/06/02 06:48:43;;;;;;;26.08;5.10;;;;;;;;;;5071956;28;20021;-70
2023/06/02 06:51:08;;;;;;;23.92;4.18;;;;;;;;;;5071525;28;20028;-71
2023/06/02 06:53:33;;;;;;;19.15;4.18;;;;;;;;;;5072477;28;20013;-70
2023/06/02 06:56:00;;;;;;;30.35;5.18;;;;;;;;;;5072150;28;20012;-70
2023/06/02 06:58:25;;;;;;;19.17;4.13;;;;;;;;;;5072406;28;20107;-70
2023/06/02 07:00:50;;;;;;;19.77;4.47;;;;;;;;;;5071822;28;20028;-70
2023/06/02 07:03:16;;;;;;;21.35;4.60;;;;;;;;;;5072014;28;20016;-70
2023/06/02 07:05:41;;;;;;;19.48;4.35;;;;;;;;;;5068145;28;20013;-70
2023/06/02 07:08:07;;;;;;;23.33;4.53;;;;;;;;;;5066607;28;20048;-70
2023/06/02 07:10:32;;;;;;;21.50;4.80;;;;;;;;;;5071982;28;20359;-70
2023/06/02 07:12:57;;;;;;;20.45;4.75;;;;;;;;;;5071734;28;20060;-70
2023/06/02 07:15:23;;;;;;;18.55;4.38;;;;;;;;;;5072061;28;20477;-70
2023/06/02 07:17:48;;;;;;;22.58;5.10;;;;;;;;;;5072042;28;20070;-70
2023/06/02 07:20:13;;;;;;;27.20;5.45;;;;;;;;;;5071934;28;20032;-70
2023/06/02 07:22:39;;;;;;;25.42;4.80;;;;;;;;;;5072132;28;20028;-70
2023/06/02 07:25:05;;;;;;;18.33;5.32;;;;;;;;;;5071442;28;20355;-70
2023/06/02 07:27:30;;;;;;;26.00;5.28;;;;;;;;;;5071158;28;20020;-70
2023/06/02 07:29:56;;;;;;;20.38;4.50;;;;;;;;;;5071547;28;20032;-70
2023/06/02 07:32:21;;;;;;;18.98;4.65;;;;;;;;;;5071654;28;20024;-71
2023/06/02 07:34:46;;;;;;;14.38;4.47;;;;;;;;;;5071921;28;20082;-70
2023/06/02 07:37:12;;;;;;;17.17;4.75;;;;;;;;;;5067936;28;20562;-71
2023/06/02 07:39:37;;;;;;;17.60;4.43;;;;;;;;;;5070695;28;20025;-72
2023/06/02 07:42:02;;;;;;;17.30;4.47;;;;;;;;;;5070753;28;20017;-72
2023/06/02 07:44:28;;;;;;;16.73;4.95;;;;;;;;;;5071661;28;20047;-71
2023/06/02 07:46:53;;;;;;;14.75;4.32;;;;;;;;;;5071866;28;20471;-72
2023/06/02 07:49:18;;;;;;;18.35;5.15;;;;;;;;;;5071275;28;20025;-72
2023/06/02 07:51:44;;;;;;;16.00;4.20;;;;;;;;;;5072037;28;20020;-72
2023/06/02 07:54:09;;;;;;;16.00;4.03;;;;;;;;;;5071430;28;20090;-72
2023/06/02 07:56:35;;;;;;;13.25;3.67;;;;;;;;;;5071496;28;20474;-72
2023/06/02 07:59:00;;;;;;;18.25;4.45;;;;;;;;;;5070813;28;20016;-72
2023/06/02 08:01:25;;;;;;;17.27;4.15;;;;;;;;;;5074036;28;20074;-71
2023/06/02 08:03:51;;;;;;;16.65;4.40;;;;;;;;;;5075872;28;20027;-71
2023/06/02 08:06:16;;;;;;;14.82;4.70;;;;;;;;;;5075547;28;20051;-71
2023/06/02 08:08:41;;;;;;;15.55;5.05;;;;;;;;;;5074597;28;20028;-71
2023/06/02 08:11:06;;;;;;;15.50;5.18;;;;;;;;;;5073189;28;20123;-72
2023/06/02 08:13:32;;;;;;;18.20;4.63;;;;;;;;;;5075604;28;20012;-72
2023/06/02 08:15:59;;;;;;;15.05;4.50;;;;;;;;;;5075132;28;20421;-71
2023/06/02 08:18:24;;;;;;;19.75;4.78;;;;;;;;;;5075021;28;20047;-71
2023/06/02 08:20:49;;;;;;;16.33;5.28;;;;;;;;;;5075514;28;20048;-71
2023/06/02 08:23:17;;;;;;;15.05;4.28;;;;;;;;;;5075345;28;20448;-71
2023/06/02 08:25:43;;;;;;;13.90;4.03;;;;;;;;;;5075383;28;20104;-71
2023/06/02 08:28:09;;;;;;;14.27;4.15;;;;;;;;;;5075004;28;20469;-71
2023/06/02 08:30:35;;;;;;;12.02;3.70;;;;;;;;;;5074644;28;20023;-71
2023/06/02 08:33:02;;;;;;;15.00;4.57;;;;;;;;;;5053279;28;20016;-71
2023/06/02 08:35:28;;;;;;;15.75;3.47;;;;;;;;;;5075199;28;20020;-71
2023/06/02 08:37:53;;;;;;;13.38;3.28;;;;;;;;;;5074691;28;20016;-71
2023/06/02 08:40:19;;;;;;;11.18;3.50;;;;;;;;;;5075245;28;20146;-71
2023/06/02 08:42:44;;;;;;;11.55;3.75;;;;;;;;;;5073567;28;20463;-71
2023/06/02 08:45:10;;;;;;;14.32;3.85;;;;;;;;;;5075027;28;20044;-71
2023/06/02 08:47:38;;;;;;;12.20;3.78;;;;;;;;;;5074932;28;20797;-71
2023/06/02 08:50:05;;;;;;;15.90;3.95;;;;;;;;;;5072296;28;20150;-71
2023/06/02 08:52:31;;;;;;;17.95;3.75;;;;;;;;;;5072441;28;20046;-71
2023/06/02 08:54:56;;;;;;;16.02;3.67;;;;;;;;;;5074861;28;20025;-72
2023/06/02 08:57:22;;;;;;;15.20;3.42;;;;;;;;;;5072385;28;20071;-71
2023/06/02 08:59:48;;;;;;;12.07;3.28;;;;;;;;;;5074155;28;20099;-72
2023/06/02 09:02:14;;;;;;;13.35;3.03;;;;;;;;;;5074735;28;20497;-72
2023/06/02 09:04:39;;;;;;;14.05;3.20;;;;;;;;;;5074589;28;20040;-72
2023/06/02 09:07:19;;;;;;;12.38;3.00;;;;;;;;;;5073980;28;21274;-72
2023/06/02 09:09:46;;;;;;;9.90;2.75;;;;;;;;;;5074302;28;20021;-71
2023/06/02 09:12:11;;;;;;;16.88;3.00;;;;;;;;;;5073296;28;20127;-72
2023/06/02 09:14:37;;;;;;;10.38;2.75;;;;;;;;;;5074370;28;20107;-73
2023/06/02 09:17:03;;;;;;;15.45;2.83;;;;;;;;;;5074288;28;20067;-72
2023/06/02 09:19:48;;;;;;;15.70;2.58;;;;;;;;;;5074139;28;20179;-73
2023/06/02 09:22:13;;;;;;;11.40;2.92;;;;;;;;;;5074126;28;20017;-72
2023/06/02 09:24:39;;;;;;;11.43;2.78;;;;;;;;;;5073324;28;20025;-72
2023/06/02 09:27:04;;;;;;;9.23;2.13;;;;;;;;;;5074247;28;20021;-72
2023/06/02 09:29:30;;;;;;;14.52;2.75;;;;;;;;;;5074262;28;20382;-73
2023/06/02 09:31:56;;;;;;;9.77;2.50;;;;;;;;;;5073471;28;20370;-72
2023/06/02 09:34:23;;;;;;;10.93;2.55;;;;;;;;;;5073788;28;20426;-72
2023/06/02 09:36:52;;;;;;;8.43;2.20;;;;;;;;;;5073820;28;20029;-72
2023/06/02 09:39:52;;;;;;;13.40;3.10;;;;;;;;;;5074179;28;20417;-70
2023/06/02 09:42:17;;;;;;;11.77;2.83;;;;;;;;;;5012089;28;20479;-70
2023/06/02 09:45:03;;;;;;;10.75;3.00;;;;;;;;;;5012280;28;20084;-70
2023/06/02 09:47:28;;;;;;;11.70;2.47;;;;;;;;;;5009625;28;20033;-70
2023/06/02 09:49:53;;;;;;;9.88;2.75;;;;;;;;;;5013430;28;20430;-70
2023/06/02 09:52:19;;;;;;;15.65;2.70;;;;;;;;;;5030560;28;20095;-70
2023/06/02 09:54:45;;;;;;;10.73;2.80;;;;;;;;;;5015179;28;20032;-70
2023/06/02 09:57:14;;;;;;;16.13;2.90;;;;;;;;;;5012176;28;20028;-70
2023/06/02 09:59:40;;;;;;;11.10;2.80;;;;;;;;;;5011956;28;20434;-70
2023/06/02 10:02:08;;;;;;;9.35;2.70;;;;;;;;;;5011619;28;20064;-71
2023/06/02 10:04:33;;;;;;;12.77;2.28;;;;;;;;;;5011935;28;20108;-70
2023/06/02 10:07:34;;;;;;;11.40;2.05;;;;;;;;;;5021928;28;20101;-70
2023/06/02 10:10:16;;;;;;;9.23;2.20;;;;;;;;;;4971471;28;20388;-70
2023/06/02 10:12:49;;;;;;;9.85;1.95;;;;;;;;;;4953020;28;20453;-70
2023/06/02 10:15:29;;;;;;;8.00;1.90;;;;;;;;;;4955623;28;20054;-70
2023/06/02 10:18:21;;;;;;;7.32;1.77;;;;;;;;;;4982193;28;20129;-70
2023/06/02 10:21:04;;;;;;;11.02;1.80;;;;;;;;;;4967556;28;20106;-70
2023/06/02 10:23:48;;;;;;;5.80;1.75;;;;;;;;;;4970622;28;20022;-70
2023/06/02 10:26:39;;;;;;;5.68;1.80;;;;;;;;;;4971301;28;20027;-70
2023/06/02 10:29:05;;;;;;;7.80;1.80;;;;;;;;;;4954207;28;20027;-70
2023/06/02 10:31:31;;;;;;;8.85;1.85;;;;;;;;;;4969844;28;20034;-69
2023/06/02 10:33:58;;;;;;;8.38;1.90;;;;;;;;;;4971288;28;20429;-70
2023/06/02 10:36:24;;;;;;;10.80;2.00;;;;;;;;;;4971006;28;20081;-70
2023/06/02 10:38:50;;;;;;;6.97;1.75;;;;;;;;;;4971007;28;20033;-70
2023/06/02 10:41:21;;;;;;;7.30;1.60;;;;;;;;;;4971155;28;20023;-70
2023/06/02 10:44:05;;;;;;;8.60;1.90;;;;;;;;;;4985622;28;20025;-70
2023/06/02 10:46:30;;;;;;;9.80;1.80;;;;;;;;;;5023944;28;20030;-70
2023/06/02 10:48:55;;;;;;;6.85;1.60;;;;;;;;;;5009193;28;20040;-70
2023/06/02 10:51:21;;;;;;;7.63;2.08;;;;;;;;;;5009744;28;20034;-70
2023/06/02 10:54:18;;;;;;;9.15;1.58;;;;;;;;;;5026909;28;20017;-70
2023/06/02 10:56:44;;;;;;;13.55;2.67;;;;;;;;;;4987806;28;20036;-70
2023/06/02 10:59:10;;;;;;;8.68;1.80;;;;;;;;;;5071219;28;20025;-70
2023/06/02 11:01:51;;;;;;;10.77;1.92;;;;;;;;;;5072459;28;20158;-70
2023/06/02 11:04:32;;;;;;;6.90;2.00;;;;;;;;;;5072026;28;20017;-70
2023/06/02 11:07:28;;;;;;;10.88;1.90;;;;;;;;;;5071282;28;20024;-70
2023/06/02 11:09:58;;;;;;;11.00;2.15;;;;;;;;;;5023429;28;20061;-70
2023/06/02 11:12:41;;;;;;;4.88;1.77;;;;;;;;;;5015225;28;22086;-69
2023/06/02 11:15:15;;;;;;;12.00;2.17;;;;;;;;;;5010477;28;20416;-70
2023/06/02 11:17:42;;;;;;;6.75;1.70;;;;;;;;;;5010717;28;20014;-70
2023/06/02 11:20:07;;;;;;;7.50;1.58;;;;;;;;;;5010614;28;20029;-70
2023/06/02 11:22:33;;;;;;;10.70;1.95;;;;;;;;;;5010368;28;20014;-70
2023/06/02 11:24:59;;;;;;;7.55;1.70;;;;;;;;;;5010544;28;20022;-70
2023/06/02 11:27:44;;;;;;;7.30;1.60;;;;;;;;;;5011717;28;20034;-70
2023/06/02 11:30:16;;;;;;;6.47;1.60;;;;;;;;;;5028969;28;20040;-70
2023/06/02 11:32:42;;;;;;;6.70;1.60;;;;;;;;;;5018781;28;20490;-70
2023/06/02 11:35:08;;;;;;;7.50;1.48;;;;;;;;;;5010266;28;20032;-71
2023/06/02 11:37:36;;;;;;;5.00;1.52;;;;;;;;;;5010347;28;20097;-71
2023/06/02 11:40:03;;;;;;;5.70;1.60;;;;;;;;;;5009997;28;20042;-71
2023/06/02 11:42:32;;;;;;;6.80;1.63;;;;;;;;;;5019714;28;20447;-70
2023/06/02 11:44:57;;;;;;;6.72;1.50;;;;;;;;;;5023705;28;20387;-70
2023/06/02 11:47:23;;;;;;;6.20;1.52;;;;;;;;;;5069085;28;20108;-70
2023/06/02 11:49:48;;;;;;;6.47;1.60;;;;;;;;;;5067100;28;20021;-70
2023/06/02 11:52:13;;;;;;;5.30;1.70;;;;;;;;;;5071647;28;20052;-70
2023/06/02 11:54:51;;;;;;;4.65;1.38;;;;;;;;;;5071466;28;20021;-70
2023/06/02 11:57:44;;;;;;;3.80;1.17;;;;;;;;;;5069882;28;20729;-70
2023/06/02 12:00:10;;;;;;;;;;;;;;;;;;5068987;28;20032;-70
2023/06/02 12:02:38;;;;;;;4.97;1.30;;;;;;;;;;5071701;28;19995;-70
2023/06/02 12:05:04;;;;;;;4.60;1.27;;;;;;;;;;5071326;28;20021;-71
2023/06/02 12:07:29;;;;;;;6.90;1.40;;;;;;;;;;5071193;28;20021;-70
2023/06/02 12:09:55;;;;;;;7.00;1.50;;;;;;;;;;5071435;28;20023;-70
2023/06/02 12:12:20;;;;;;;5.32;1.30;;;;;;;;;;5071052;28;20097;-70
2023/06/02 12:14:45;;;;;;;6.70;1.75;;;;;;;;;;5070579;28;20036;-70
2023/06/02 12:17:11;;;;;;;7.63;1.73;;;;;;;;;;5071235;28;20024;-70
2023/06/02 12:19:36;;;;;;;6.38;1.42;;;;;;;;;;5071318;28;20021;-70
2023/06/02 12:22:11;;;;;;;9.25;2.58;;;;;;;;;;5071642;28;20017;-70
2023/06/02 12:24:37;;;;;;;12.05;2.38;;;;;;;;;;5071289;28;20012;-70
2023/06/02 12:27:03;;;;;;;5.85;1.70;;;;;;;;;;5071427;28;20329;-70
2023/06/02 12:29:29;;;;;;;6.95;1.95;;;;;;;;;;5071519;28;20028;-70
2023/06/02 12:32:01;;;;;;;5.60;1.42;;;;;;;;;;5070790;28;20017;-70
2023/06/02 12:34:27;;;;;;;4.25;1.17;;;;;;;;;;5070256;28;20032;-69
2023/06/02 12:36:52;;;;;;;7.47;1.60;;;;;;;;;;5070336;28;20028;-70
2023/06/02 12:39:18;;;;;;;5.32;1.60;;;;;;;;;;5070762;28;20036;-69
2023/06/02 12:41:43;;;;;;;5.32;1.90;;;;;;;;;;5067641;28;20052;-70
2023/06/02 12:44:08;;;;;;;7.07;1.80;;;;;;;;;;5069446;28;20009;-70
2023/06/02 12:46:34;;;;;;;5.13;1.58;;;;;;;;;;5071187;28;20020;-70
2023/06/02 12:48:59;;;;;;;4.28;1.52;;;;;;;;;;5070749;28;20017;-69
2023/06/02 12:51:24;;;;;;;5.18;1.60;;;;;;;;;;5074511;28;20023;-70
2023/06/02 12:53:50;;;;;;;7.20;1.80;;;;;;;;;;5074815;28;20067;-71
2023/06/02 12:56:15;;;;;;;8.48;1.70;;;;;;;;;;5074698;28;20024;-70
2023/06/02 12:58:40;;;;;;;6.72;1.80;;;;;;;;;;5073963;28;20031;-70
2023/06/02 13:01:06;;;;;;;5.15;1.60;;;;;;;;;;5074311;28;20020;-70
2023/06/02 13:03:31;;;;;;;21.35;2.20;;;;;;;;;;5074381;28;20099;-70
2023/06/02 13:05:58;;;;;;;4.53;1.80;;;;;;;;;;5073646;28;20020;-70
2023/06/02 13:08:24;;;;;;;6.00;1.60;;;;;;;;;;5074569;28;20025;-69
2023/06/02 13:10:49;;;;;;;5.72;1.80;;;;;;;;;;5074024;28;20024;-70
2023/06/02 13:13:14;;;;;;;6.50;2.08;;;;;;;;;;5074451;28;20039;-69
2023/06/02 13:15:40;;;;;;;6.70;1.92;;;;;;;;;;5074070;28;20073;-69
2023/06/02 13:18:05;;;;;;;5.80;2.05;;;;;;;;;;5074357;28;20016;-69
2023/06/02 13:20:30;;;;;;;7.05;2.25;;;;;;;;;;5074407;28;20012;-69
2023/06/02 13:22:56;;;;;;;11.80;3.17;;;;;;;;;;5073850;28;20370;-69
2023/06/02 13:25:22;;;;;;;9.18;2.42;;;;;;;;;;5073973;28;20028;-70
2023/06/02 13:27:48;;;;;;;4.45;1.70;;;;;;;;;;5073810;28;20406;-69
2023/06/02 13:30:15;;;;;;;7.97;2.15;;;;;;;;;;5074321;28;20019;-70
2023/06/02 13:32:40;;;;;;;6.90;2.45;;;;;;;;;;5073815;28;20024;-69
2023/06/02 13:35:06;;;;;;;6.03;2.30;;;;;;;;;;5074057;28;20024;-69
2023/06/02 13:37:33;;;;;;;5.00;2.30;;;;;;;;;;5073837;28;20372;-69
2023/06/02 13:39:59;;;;;;;5.70;1.75;;;;;;;;;;5070982;28;20019;-69
2023/06/02 13:42:25;;;;;;;6.00;2.10;;;;;;;;;;5073810;28;20469;-70
2023/06/02 13:44:50;;;;;;;6.53;2.00;;;;;;;;;;5056021;28;20058;-70
2023/06/02 13:47:15;;;;;;;5.20;1.75;;;;;;;;;;5073985;28;20107;-69
2023/06/02 13:49:41;;;;;;;5.30;1.88;;;;;;;;;;5073631;28;20386;-70
2023/06/02 13:52:06;;;;;;;3.95;1.45;;;;;;;;;;5073735;28;20048;-69
2023/06/02 13:54:32;;;;;;;6.70;1.90;;;;;;;;;;5073898;28;20442;-70
2023/06/02 13:56:57;;;;;;;7.20;2.00;;;;;;;;;;5072996;28;20248;-69
2023/06/02 13:59:23;;;;;;;6.35;2.10;;;;;;;;;;5072370;28;20390;-69
2023/06/02 14:01:48;;;;;;;5.63;1.95;;;;;;;;;;5073355;28;20008;-70
2023/06/02 14:04:13;;;;;;;4.80;1.80;;;;;;;;;;5073268;28;20508;-69
2023/06/02 14:06:39;;;;;;;6.20;2.10;;;;;;;;;;5073558;28;20013;-70
2023/06/02 14:09:05;;;;;;;5.68;2.00;;;;;;;;;;5073440;28;20093;-70
2023/06/02 14:11:38;;;;;;;5.30;2.08;;;;;;;;;;5073049;28;20041;-70
2023/06/02 14:14:03;;;;;;;6.65;2.20;;;;;;;;;;5072697;28;20481;-70
2023/06/02 14:16:29;;;;;;;8.93;2.90;;;;;;;;;;5073161;28;20013;-70
2023/06/02 14:18:54;;;;;;;7.03;2.15;;;;;;;;;;5073093;28;20016;-70
2023/06/02 14:21:20;;;;;;;5.82;2.20;;;;;;;;;;5072927;28;20019;-70
2023/06/02 14:23:45;;;;;;;6.45;2.20;;;;;;;;;;5072962;28;20040;-70
2023/06/02 14:26:10;;;;;;;5.47;2.05;;;;;;;;;;5072762;28;20501;-70
2023/06/02 14:28:35;;;;;;;8.45;2.17;;;;;;;;;;5073279;28;20016;-69
2023/06/02 14:31:01;;;;;;;5.55;2.10;;;;;;;;;;5071934;28;20048;-70
2023/06/02 14:33:26;;;;;;;6.50;2.40;;;;;;;;;;5072909;28;20028;-70
2023/06/02 14:35:51;;;;;;;6.97;2.40;;;;;;;;;;5073134;28;20409;-70